AXM6123 WMKP-WMKK
Flight info
| Callsign | AXM6123 |
|---|---|
| Flight time | 0h 42m |
| Altitude | 27000 |
| Route | BOGUK DCT ANBIK Y507 KAKAK KAKAK1G |
| Aircraft | A320/M-SDE3FGHIRWY/LB1 |
Departure
| Time | 2026-05-04 13:37 |
|---|---|
| Airport | Penang International Airport (WMKP) |
Arrival
| Time | 2026-05-04 14:19 |
|---|---|
| Airport | Kuala Lumpur International Airport (WMKK) |
| Time | Latitude | Longitude | Altitude | Speed | Heading |
|---|---|---|---|---|---|
| 2026-05-04 13:15 | 5.29222 | 100.26648 | 23 ft | 0 kts | 311° |
| 2026-05-04 13:29 | 5.29217 | 100.26654 | 23 ft | 4 kts | 310° |
| 2026-05-04 13:29 | 5.29200 | 100.26675 | 25 ft | 4 kts | 303° |
| 2026-05-04 13:29 | 5.29187 | 100.26699 | 25 ft | 4 kts | 287° |
| 2026-05-04 13:29 | 5.29185 | 100.26723 | 24 ft | 4 kts | 238° |
| 2026-05-04 13:30 | 5.29192 | 100.26731 | 26 ft | 1 kts | 220° |
| 2026-05-04 13:30 | 5.29193 | 100.26732 | 26 ft | 0 kts | 220° |
| 2026-05-04 13:32 | 5.29189 | 100.26729 | 26 ft | 5 kts | 221° |
| 2026-05-04 13:32 | 5.29142 | 100.26687 | 23 ft | 11 kts | 221° |
| 2026-05-04 13:32 | 5.29070 | 100.26622 | 24 ft | 16 kts | 221° |
| 2026-05-04 13:33 | 5.28984 | 100.26546 | 23 ft | 17 kts | 221° |
| 2026-05-04 13:33 | 5.28896 | 100.26482 | 23 ft | 16 kts | 195° |
| 2026-05-04 13:33 | 5.28809 | 100.26531 | 23 ft | 15 kts | 134° |
| 2026-05-04 13:33 | 5.28734 | 100.26579 | 25 ft | 12 kts | 176° |
| 2026-05-04 13:34 | 5.28670 | 100.26610 | 23 ft | 8 kts | 129° |
| 2026-05-04 13:34 | 5.28668 | 100.26611 | 23 ft | 0 kts | 129° |
| 2026-05-04 13:36 | 5.28655 | 100.26628 | 23 ft | 9 kts | 129° |
| 2026-05-04 13:36 | 5.28640 | 100.26716 | 25 ft | 14 kts | 38° |
| 2026-05-04 13:36 | 5.28673 | 100.26740 | 24 ft | 0 kts | 41° |
| 2026-05-04 13:36 | 5.28795 | 100.26851 | 27 ft | 62 kts | 42° |
| 2026-05-04 13:37 | 5.29285 | 100.27294 | 26 ft | 125 kts | 42° |
| 2026-05-04 13:37 | 5.30064 | 100.27998 | 43 ft | 173 kts | 41° |
| 2026-05-04 13:37 | 5.30970 | 100.28835 | 662 ft | 175 kts | 43° |
| 2026-05-04 13:37 | 5.31555 | 100.29378 | 1091 ft | 174 kts | 43° |
| 2026-05-04 13:38 | 5.32830 | 100.30523 | 1617 ft | 199 kts | 43° |
| 2026-05-04 13:38 | 5.33861 | 100.31564 | 1881 ft | 224 kts | 58° |
| 2026-05-04 13:38 | 5.34319 | 100.33136 | 2261 ft | 247 kts | 94° |
| 2026-05-04 13:38 | 5.33712 | 100.34783 | 2789 ft | 262 kts | 126° |
| 2026-05-04 13:39 | 5.32596 | 100.36250 | 3646 ft | 266 kts | 128° |
| 2026-05-04 13:39 | 5.31421 | 100.37699 | 4547 ft | 269 kts | 129° |
| 2026-05-04 13:39 | 5.30220 | 100.39159 | 5395 ft | 273 kts | 129° |
| 2026-05-04 13:39 | 5.29006 | 100.40637 | 6253 ft | 276 kts | 128° |
| 2026-05-04 13:40 | 5.27780 | 100.42140 | 7059 ft | 280 kts | 128° |
| 2026-05-04 13:40 | 5.26547 | 100.43659 | 7859 ft | 283 kts | 128° |
| 2026-05-04 13:40 | 5.25299 | 100.45204 | 8660 ft | 286 kts | 128° |
| 2026-05-04 13:40 | 5.24043 | 100.46763 | 9469 ft | 289 kts | 128° |
| 2026-05-04 13:41 | 5.22773 | 100.48346 | 10189 ft | 295 kts | 128° |
| 2026-05-04 13:41 | 5.21441 | 100.50013 | 10413 ft | 318 kts | 128° |
| 2026-05-04 13:41 | 5.20014 | 100.51806 | 10706 ft | 336 kts | 128° |
| 2026-05-04 13:42 | 5.17042 | 100.55529 | 11924 ft | 346 kts | 128° |
| 2026-05-04 13:42 | 5.15530 | 100.57420 | 12588 ft | 350 kts | 128° |
| 2026-05-04 13:42 | 5.14001 | 100.59329 | 13223 ft | 353 kts | 128° |
| 2026-05-04 13:42 | 5.12454 | 100.61255 | 13838 ft | 356 kts | 128° |
| 2026-05-04 13:43 | 5.10894 | 100.63198 | 14386 ft | 359 kts | 128° |
| 2026-05-04 13:43 | 5.09321 | 100.65155 | 14919 ft | 362 kts | 128° |
| 2026-05-04 13:43 | 5.07731 | 100.67134 | 15464 ft | 366 kts | 128° |
| 2026-05-04 13:43 | 5.06130 | 100.69126 | 16000 ft | 369 kts | 128° |
| 2026-05-04 13:44 | 5.04512 | 100.71138 | 16529 ft | 372 kts | 128° |
| 2026-05-04 13:44 | 5.02881 | 100.73168 | 17062 ft | 375 kts | 128° |
| 2026-05-04 13:44 | 5.01244 | 100.75215 | 17579 ft | 378 kts | 128° |
| 2026-05-04 13:44 | 4.99571 | 100.77308 | 18097 ft | 381 kts | 128° |
| 2026-05-04 13:45 | 4.97735 | 100.79244 | 18517 ft | 386 kts | 139° |
| 2026-05-04 13:45 | 4.95518 | 100.80777 | 18949 ft | 390 kts | 150° |
| 2026-05-04 13:45 | 4.93011 | 100.81826 | 19391 ft | 394 kts | 162° |
| 2026-05-04 13:45 | 4.90310 | 100.82379 | 19827 ft | 397 kts | 170° |
| 2026-05-04 13:46 | 4.87574 | 100.82805 | 20259 ft | 399 kts | 170° |
| 2026-05-04 13:46 | 4.84822 | 100.83237 | 20691 ft | 402 kts | 169° |
| 2026-05-04 13:46 | 4.82052 | 100.83676 | 21119 ft | 404 kts | 169° |
| 2026-05-04 13:46 | 4.79274 | 100.84119 | 21544 ft | 406 kts | 169° |
| 2026-05-04 13:47 | 4.76472 | 100.84564 | 21958 ft | 408 kts | 169° |
| 2026-05-04 13:47 | 4.73661 | 100.85008 | 22363 ft | 411 kts | 169° |
| 2026-05-04 13:47 | 4.70832 | 100.85456 | 22764 ft | 413 kts | 169° |
| 2026-05-04 13:47 | 4.67988 | 100.85905 | 23159 ft | 415 kts | 169° |
| 2026-05-04 13:48 | 4.65127 | 100.86361 | 23518 ft | 417 kts | 169° |
| 2026-05-04 13:48 | 4.62254 | 100.86820 | 23826 ft | 419 kts | 169° |
| 2026-05-04 13:48 | 4.59366 | 100.87274 | 24137 ft | 422 kts | 170° |
| 2026-05-04 13:48 | 4.56460 | 100.87729 | 24447 ft | 424 kts | 169° |
| 2026-05-04 13:49 | 4.53546 | 100.88186 | 24752 ft | 426 kts | 169° |
| 2026-05-04 13:49 | 4.50611 | 100.88645 | 25054 ft | 428 kts | 169° |
| 2026-05-04 13:49 | 4.48660 | 100.88953 | 25254 ft | 429 kts | 169° |
| 2026-05-04 13:49 | 4.44811 | 100.89983 | 25648 ft | 429 kts | 157° |
| 2026-05-04 13:50 | 4.42964 | 100.90807 | 25848 ft | 429 kts | 153° |
| 2026-05-04 13:50 | 4.40275 | 100.92121 | 26144 ft | 431 kts | 152° |
| 2026-05-04 13:50 | 4.37573 | 100.93444 | 26436 ft | 433 kts | 152° |
| 2026-05-04 13:50 | 4.34859 | 100.94773 | 26712 ft | 435 kts | 153° |
| 2026-05-04 13:51 | 4.32138 | 100.96098 | 26865 ft | 433 kts | 153° |
| 2026-05-04 13:51 | 4.29464 | 100.97398 | 26894 ft | 423 kts | 152° |
| 2026-05-04 13:51 | 4.26829 | 100.98683 | 26895 ft | 419 kts | 152° |
| 2026-05-04 13:51 | 4.24211 | 100.99959 | 26895 ft | 418 kts | 152° |
| 2026-05-04 13:52 | 4.18986 | 101.02504 | 26904 ft | 418 kts | 153° |
| 2026-05-04 13:52 | 4.16373 | 101.03774 | 26904 ft | 417 kts | 153° |
| 2026-05-04 13:52 | 4.13759 | 101.05047 | 26904 ft | 417 kts | 152° |
| 2026-05-04 13:53 | 4.11150 | 101.06320 | 26901 ft | 417 kts | 152° |
| 2026-05-04 13:53 | 4.08538 | 101.07592 | 26903 ft | 417 kts | 153° |
| 2026-05-04 13:53 | 4.05925 | 101.08863 | 26901 ft | 417 kts | 153° |
| 2026-05-04 13:54 | 4.00703 | 101.11399 | 26897 ft | 417 kts | 152° |
| 2026-05-04 13:54 | 3.98093 | 101.12669 | 26895 ft | 417 kts | 152° |
| 2026-05-04 13:54 | 3.92876 | 101.15210 | 26890 ft | 417 kts | 152° |
| 2026-05-04 13:55 | 3.90283 | 101.16476 | 26664 ft | 412 kts | 152° |
| 2026-05-04 13:55 | 3.85170 | 101.18964 | 26647 ft | 408 kts | 153° |
| 2026-05-04 13:55 | 3.82604 | 101.20208 | 26703 ft | 412 kts | 153° |
| 2026-05-04 13:56 | 3.80036 | 101.21457 | 26466 ft | 409 kts | 153° |
| 2026-05-04 13:56 | 3.77597 | 101.22880 | 26231 ft | 405 kts | 141° |
| 2026-05-04 13:56 | 3.73668 | 101.26856 | 25770 ft | 401 kts | 131° |
| 2026-05-04 13:57 | 3.71779 | 101.28903 | 25545 ft | 399 kts | 131° |
| 2026-05-04 13:57 | 3.69906 | 101.30950 | 25317 ft | 398 kts | 131° |
| 2026-05-04 13:58 | 3.64318 | 101.37084 | 24645 ft | 394 kts | 131° |
| 2026-05-04 13:58 | 3.60639 | 101.41115 | 24204 ft | 391 kts | 131° |
| 2026-05-04 13:58 | 3.58807 | 101.43123 | 23988 ft | 390 kts | 131° |
| 2026-05-04 13:59 | 3.56977 | 101.45123 | 23772 ft | 389 kts | 131° |
| 2026-05-04 13:59 | 3.55152 | 101.47113 | 23565 ft | 387 kts | 131° |
| 2026-05-04 13:59 | 3.51524 | 101.51072 | 23067 ft | 385 kts | 131° |
| 2026-05-04 14:00 | 3.49721 | 101.53044 | 22809 ft | 383 kts | 131° |
| 2026-05-04 14:00 | 3.46138 | 101.56962 | 22301 ft | 380 kts | 131° |
| 2026-05-04 14:00 | 3.44264 | 101.58817 | 22048 ft | 379 kts | 142° |
| 2026-05-04 14:01 | 3.41979 | 101.60111 | 21801 ft | 379 kts | 155° |
| 2026-05-04 14:01 | 3.39546 | 101.61138 | 21561 ft | 379 kts | 156° |
| 2026-05-04 14:01 | 3.34699 | 101.63140 | 20995 ft | 373 kts | 156° |
| 2026-05-04 14:02 | 3.32306 | 101.64123 | 20524 ft | 371 kts | 156° |
| 2026-05-04 14:02 | 3.29921 | 101.65106 | 20050 ft | 370 kts | 156° |
| 2026-05-04 14:02 | 3.27542 | 101.66088 | 19563 ft | 369 kts | 156° |
| 2026-05-04 14:02 | 3.25171 | 101.67066 | 19087 ft | 369 kts | 156° |
| 2026-05-04 14:03 | 3.22795 | 101.68048 | 18605 ft | 369 kts | 156° |
| 2026-05-04 14:03 | 3.20428 | 101.69029 | 18114 ft | 369 kts | 156° |
| 2026-05-04 14:03 | 3.18060 | 101.70011 | 17598 ft | 367 kts | 156° |
| 2026-05-04 14:03 | 3.15708 | 101.70985 | 17124 ft | 365 kts | 156° |
| 2026-05-04 14:04 | 3.11007 | 101.72928 | 16189 ft | 361 kts | 156° |
| 2026-05-04 14:04 | 3.08694 | 101.73881 | 15740 ft | 359 kts | 156° |
| 2026-05-04 14:04 | 3.06424 | 101.74818 | 15296 ft | 357 kts | 156° |
| 2026-05-04 14:05 | 3.01849 | 101.76709 | 14391 ft | 355 kts | 156° |
| 2026-05-04 14:05 | 2.99572 | 101.77653 | 13940 ft | 354 kts | 156° |
| 2026-05-04 14:05 | 2.97320 | 101.78582 | 13450 ft | 352 kts | 156° |
| 2026-05-04 14:06 | 2.95042 | 101.79521 | 12970 ft | 350 kts | 156° |
| 2026-05-04 14:06 | 2.92800 | 101.80450 | 12503 ft | 347 kts | 156° |
| 2026-05-04 14:06 | 2.90575 | 101.81374 | 12048 ft | 345 kts | 156° |
| 2026-05-04 14:06 | 2.88364 | 101.82291 | 11584 ft | 343 kts | 157° |
| 2026-05-04 14:07 | 2.86165 | 101.83200 | 11140 ft | 340 kts | 157° |
| 2026-05-04 14:07 | 2.83989 | 101.84098 | 10760 ft | 336 kts | 157° |
| 2026-05-04 14:07 | 2.81831 | 101.84990 | 10302 ft | 335 kts | 157° |
| 2026-05-04 14:07 | 2.79711 | 101.85866 | 10133 ft | 324 kts | 157° |
| 2026-05-04 14:08 | 2.77666 | 101.86711 | 10013 ft | 312 kts | 157° |
| 2026-05-04 14:08 | 2.75664 | 101.87538 | 9872 ft | 302 kts | 157° |
| 2026-05-04 14:08 | 2.73739 | 101.88333 | 9501 ft | 297 kts | 157° |
| 2026-05-04 14:08 | 2.71838 | 101.89118 | 8919 ft | 293 kts | 157° |
| 2026-05-04 14:09 | 2.68089 | 101.90663 | 8111 ft | 290 kts | 157° |
| 2026-05-04 14:09 | 2.66228 | 101.91432 | 7722 ft | 289 kts | 157° |
| 2026-05-04 14:10 | 2.62527 | 101.92968 | 6948 ft | 287 kts | 157° |
| 2026-05-04 14:10 | 2.60688 | 101.93729 | 6556 ft | 286 kts | 158° |
| 2026-05-04 14:10 | 2.58851 | 101.94488 | 6157 ft | 285 kts | 158° |
| 2026-05-04 14:10 | 2.57021 | 101.95244 | 5764 ft | 283 kts | 158° |
| 2026-05-04 14:11 | 2.55152 | 101.95836 | 5375 ft | 281 kts | 174° |
| 2026-05-04 14:11 | 2.51581 | 101.94736 | 4586 ft | 274 kts | 223° |
| 2026-05-04 14:11 | 2.50406 | 101.93263 | 4148 ft | 271 kts | 237° |
| 2026-05-04 14:12 | 2.49352 | 101.91701 | 3743 ft | 270 kts | 237° |
| 2026-05-04 14:12 | 2.48306 | 101.90160 | 3515 ft | 266 kts | 237° |
| 2026-05-04 14:12 | 2.47269 | 101.86961 | 3503 ft | 230 kts | 280° |
| 2026-05-04 14:13 | 2.47819 | 101.85514 | 3507 ft | 222 kts | 304° |
| 2026-05-04 14:13 | 2.48909 | 101.84443 | 3510 ft | 221 kts | 325° |
| 2026-05-04 14:13 | 2.50192 | 101.83587 | 3510 ft | 222 kts | 326° |
| 2026-05-04 14:13 | 2.51513 | 101.82794 | 3509 ft | 223 kts | 335° |
| 2026-05-04 14:14 | 2.53008 | 101.82387 | 3508 ft | 224 kts | 348° |
| 2026-05-04 14:14 | 2.56005 | 101.81816 | 3493 ft | 208 kts | 341° |
| 2026-05-04 14:14 | 2.57293 | 101.81195 | 3214 ft | 204 kts | 328° |
| 2026-05-04 14:15 | 2.59594 | 101.79676 | 2659 ft | 192 kts | 325° |
| 2026-05-04 14:15 | 2.61732 | 101.78242 | 2197 ft | 176 kts | 326° |
| 2026-05-04 14:16 | 2.63626 | 101.76973 | 1774 ft | 152 kts | 326° |
| 2026-05-04 14:16 | 2.64476 | 101.76402 | 1594 ft | 144 kts | 327° |
| 2026-05-04 14:17 | 2.66107 | 101.75309 | 1227 ft | 140 kts | 327° |
| 2026-05-04 14:17 | 2.66910 | 101.74771 | 1044 ft | 139 kts | 327° |
| 2026-05-04 14:17 | 2.68523 | 101.73690 | 732 ft | 140 kts | 326° |
| 2026-05-04 14:18 | 2.69335 | 101.73145 | 556 ft | 140 kts | 326° |
| 2026-05-04 14:18 | 2.70960 | 101.72058 | 222 ft | 141 kts | 326° |
| 2026-05-04 14:19 | 2.72424 | 101.71070 | 55 ft | 89 kts | 326° |
| 2026-05-04 14:19 | 2.72806 | 101.70813 | 52 ft | 52 kts | 326° |
| 2026-05-04 14:19 | 2.73067 | 101.70638 | 55 ft | 32 kts | 326° |
| 2026-05-04 14:19 | 2.73272 | 101.70502 | 56 ft | 42 kts | 327° |
| 2026-05-04 14:20 | 2.73533 | 101.70325 | 52 ft | 45 kts | 326° |
| 2026-05-04 14:20 | 2.73723 | 101.70149 | 55 ft | 34 kts | 306° |
| 2026-05-04 14:20 | 2.73828 | 101.69977 | 52 ft | 25 kts | 300° |
| 2026-05-04 14:21 | 2.73878 | 101.69899 | 54 ft | 10 kts | 314° |
| 2026-05-04 14:21 | 2.73969 | 101.69833 | 52 ft | 19 kts | 326° |
| 2026-05-04 14:21 | 2.74083 | 101.69757 | 54 ft | 20 kts | 326° |
| 2026-05-04 14:21 | 2.74164 | 101.69702 | 55 ft | 22 kts | 326° |
| 2026-05-04 14:22 | 2.74341 | 101.69583 | 54 ft | 25 kts | 326° |
| 2026-05-04 14:22 | 2.74441 | 101.69516 | 51 ft | 26 kts | 326° |
| 2026-05-04 14:22 | 2.74555 | 101.69428 | 47 ft | 12 kts | 286° |
| 2026-05-04 14:22 | 2.74522 | 101.69367 | 47 ft | 15 kts | 237° |
| 2026-05-04 14:23 | 2.74373 | 101.69147 | 42 ft | 22 kts | 236° |
| 2026-05-04 14:23 | 2.74289 | 101.69022 | 42 ft | 20 kts | 236° |
| 2026-05-04 14:23 | 2.74280 | 101.68947 | 42 ft | 9 kts | 336° |
| 2026-05-04 14:24 | 2.74320 | 101.68923 | 41 ft | 2 kts | 326° |
| 2026-05-04 14:24 | 2.74326 | 101.68919 | 42 ft | 0 kts | 326° |
| 2026-05-04 14:24 | 2.74329 | 101.68917 | 42 ft | 0 kts | 325° |